Terminal Aerodrome Forecast
Issued by NWS

Home | Current Version | Previous Version | Text Only | Print | Product List | Glossary On
Versions: 1 2 3 4 5 6 7 8 9 10 11 12 13 14 15 16 17 18 19 20 21 22 23 24 25
000
FTUS46 KSEW 262320
TAFSEA
TAF
KSEA 262320Z 2700/2806 VRB04KT P6SM SCT015 BKN040
      TEMPO 2700/2704 -SHRA BKN015 OVC040
     FM270400 03007KT P6SM BKN040
     FM271000 03007KT P6SM SCT040
     FM271600 VRB04KT P6SM VCSH BKN040=

USA.gov is the U.S. government's official web portal to all federal, state and local government web resources and services.